SHT14H EGLL-EGJB
Flight info
| Callsign | SHT14H |
|---|---|
| Flight time | 0h 34m |
| Altitude | 21000 |
| Route | GOGSI N621 SAM/N0382F200 N63 LELNA |
| Aircraft | A319/M-SDE3FGIJ1KRWXY/LB1 |
Departure
| Time | 2026-04-25 12:25 |
|---|---|
| Airport | London Heathrow Airport (EGLL) |
Arrival
| Time | 2026-04-25 12:59 |
|---|---|
| Airport | Guernsey Airport (EGJB) |
| Time | Latitude | Longitude | Altitude | Speed | Heading |
|---|---|---|---|---|---|
| 2026-04-25 10:40 | 51.47188 | -0.48591 | 88 ft | 0 kts | 269° |
| 2026-04-25 12:12 | 51.47188 | -0.48575 | 89 ft | 4 kts | 269° |
| 2026-04-25 12:12 | 51.47188 | -0.48526 | 86 ft | 3 kts | 269° |
| 2026-04-25 12:12 | 51.47193 | -0.48487 | 90 ft | 4 kts | 227° |
| 2026-04-25 12:13 | 51.47212 | -0.48473 | 90 ft | 4 kts | 179° |
| 2026-04-25 12:13 | 51.47226 | -0.48473 | 86 ft | 0 kts | 179° |
| 2026-04-25 12:16 | 51.47215 | -0.48473 | 90 ft | 3 kts | 179° |
| 2026-04-25 12:16 | 51.47182 | -0.48472 | 87 ft | 6 kts | 179° |
| 2026-04-25 12:17 | 51.47128 | -0.48472 | 86 ft | 9 kts | 179° |
| 2026-04-25 12:17 | 51.47053 | -0.48471 | 87 ft | 12 kts | 179° |
| 2026-04-25 12:17 | 51.46958 | -0.48470 | 88 ft | 15 kts | 179° |
| 2026-04-25 12:17 | 51.46842 | -0.48469 | 86 ft | 18 kts | 180° |
| 2026-04-25 12:18 | 51.46755 | -0.48469 | 86 ft | 20 kts | 179° |
| 2026-04-25 12:18 | 51.46664 | -0.48449 | 87 ft | 13 kts | 139° |
| 2026-04-25 12:18 | 51.46653 | -0.48294 | 86 ft | 15 kts | 90° |
| 2026-04-25 12:18 | 51.46653 | -0.48107 | 86 ft | 18 kts | 90° |
| 2026-04-25 12:19 | 51.46655 | -0.47729 | 86 ft | 23 kts | 90° |
| 2026-04-25 12:19 | 51.46656 | -0.47368 | 86 ft | 26 kts | 90° |
| 2026-04-25 12:19 | 51.46657 | -0.47066 | 88 ft | 28 kts | 89° |
| 2026-04-25 12:20 | 51.46658 | -0.46816 | 86 ft | 14 kts | 90° |
| 2026-04-25 12:20 | 51.46658 | -0.46640 | 89 ft | 17 kts | 89° |
| 2026-04-25 12:20 | 51.46659 | -0.46434 | 86 ft | 20 kts | 89° |
| 2026-04-25 12:20 | 51.46660 | -0.46202 | 86 ft | 22 kts | 90° |
| 2026-04-25 12:21 | 51.46661 | -0.45938 | 86 ft | 25 kts | 90° |
| 2026-04-25 12:21 | 51.46662 | -0.45648 | 86 ft | 27 kts | 90° |
| 2026-04-25 12:21 | 51.46663 | -0.45328 | 86 ft | 30 kts | 90° |
| 2026-04-25 12:21 | 51.46664 | -0.44982 | 87 ft | 32 kts | 90° |
| 2026-04-25 12:22 | 51.46664 | -0.44724 | 87 ft | 24 kts | 90° |
| 2026-04-25 12:22 | 51.46665 | -0.44448 | 86 ft | 26 kts | 90° |
| 2026-04-25 12:22 | 51.46666 | -0.44173 | 86 ft | 14 kts | 89° |
| 2026-04-25 12:22 | 51.46619 | -0.44053 | 87 ft | 16 kts | 178° |
| 2026-04-25 12:23 | 51.46516 | -0.44056 | 88 ft | 9 kts | 196° |
| 2026-04-25 12:23 | 51.46493 | -0.44135 | 86 ft | 0 kts | 268° |
| 2026-04-25 12:23 | 51.46493 | -0.44136 | 86 ft | 0 kts | 268° |
| 2026-04-25 12:24 | 51.46493 | -0.44184 | 86 ft | 16 kts | 269° |
| 2026-04-25 12:24 | 51.46491 | -0.44716 | 91 ft | 78 kts | 269° |
| 2026-04-25 12:24 | 51.46487 | -0.45912 | 88 ft | 135 kts | 270° |
| 2026-04-25 12:24 | 51.46485 | -0.47588 | 462 ft | 151 kts | 269° |
| 2026-04-25 12:25 | 51.46485 | -0.49315 | 1071 ft | 159 kts | 269° |
| 2026-04-25 12:25 | 51.46457 | -0.51134 | 1590 ft | 173 kts | 268° |
| 2026-04-25 12:25 | 51.46409 | -0.53189 | 1977 ft | 196 kts | 268° |
| 2026-04-25 12:25 | 51.46369 | -0.55550 | 2359 ft | 226 kts | 269° |
| 2026-04-25 12:26 | 51.46335 | -0.58182 | 2952 ft | 251 kts | 269° |
| 2026-04-25 12:26 | 51.46304 | -0.61039 | 3859 ft | 261 kts | 268° |
| 2026-04-25 12:26 | 51.46021 | -0.63937 | 4951 ft | 265 kts | 257° |
| 2026-04-25 12:26 | 51.45591 | -0.66842 | 5639 ft | 270 kts | 258° |
| 2026-04-25 12:27 | 51.45453 | -0.69834 | 5891 ft | 269 kts | 269° |
| 2026-04-25 12:27 | 51.45419 | -0.72833 | 5977 ft | 269 kts | 269° |
| 2026-04-25 12:27 | 51.45390 | -0.75837 | 6072 ft | 272 kts | 269° |
| 2026-04-25 12:27 | 51.45234 | -0.78865 | 7033 ft | 273 kts | 257° |
| 2026-04-25 12:28 | 51.44510 | -0.81694 | 7996 ft | 278 kts | 238° |
| 2026-04-25 12:28 | 51.43187 | -0.83983 | 8945 ft | 284 kts | 220° |
| 2026-04-25 12:28 | 51.41666 | -0.86036 | 9809 ft | 289 kts | 222° |
| 2026-04-25 12:28 | 51.40054 | -0.88013 | 10143 ft | 293 kts | 216° |
| 2026-04-25 12:29 | 51.38287 | -0.89795 | 10616 ft | 311 kts | 211° |
| 2026-04-25 12:29 | 51.36345 | -0.91582 | 11010 ft | 331 kts | 210° |
| 2026-04-25 12:29 | 51.34304 | -0.93389 | 11729 ft | 338 kts | 210° |
| 2026-04-25 12:29 | 51.32227 | -0.95208 | 12544 ft | 342 kts | 210° |
| 2026-04-25 12:30 | 51.30133 | -0.97042 | 13391 ft | 345 kts | 210° |
| 2026-04-25 12:30 | 51.28046 | -0.98879 | 14185 ft | 348 kts | 210° |
| 2026-04-25 12:30 | 51.25916 | -1.00756 | 14909 ft | 351 kts | 210° |
| 2026-04-25 12:30 | 51.23767 | -1.02653 | 15632 ft | 355 kts | 210° |
| 2026-04-25 12:31 | 51.21597 | -1.04576 | 16341 ft | 358 kts | 211° |
| 2026-04-25 12:31 | 51.19406 | -1.06523 | 17047 ft | 362 kts | 211° |
| 2026-04-25 12:31 | 51.17192 | -1.08482 | 17755 ft | 366 kts | 211° |
| 2026-04-25 12:31 | 51.14955 | -1.10458 | 18459 ft | 369 kts | 211° |
| 2026-04-25 12:32 | 51.12694 | -1.12454 | 19086 ft | 373 kts | 211° |
| 2026-04-25 12:32 | 51.10419 | -1.14462 | 19741 ft | 375 kts | 211° |
| 2026-04-25 12:32 | 51.08128 | -1.16479 | 20420 ft | 377 kts | 210° |
| 2026-04-25 12:32 | 51.05824 | -1.18505 | 20988 ft | 379 kts | 210° |
| 2026-04-25 12:33 | 51.03544 | -1.20506 | 21169 ft | 379 kts | 210° |
| 2026-04-25 12:33 | 51.01211 | -1.22551 | 21218 ft | 377 kts | 210° |
| 2026-04-25 12:33 | 50.98950 | -1.24534 | 21220 ft | 376 kts | 210° |
| 2026-04-25 12:33 | 50.96656 | -1.26548 | 21219 ft | 376 kts | 210° |
| 2026-04-25 12:34 | 50.94366 | -1.28557 | 21220 ft | 376 kts | 210° |
| 2026-04-25 12:34 | 50.92071 | -1.30565 | 21221 ft | 376 kts | 210° |
| 2026-04-25 12:34 | 50.89781 | -1.32564 | 21219 ft | 376 kts | 210° |
| 2026-04-25 12:34 | 50.88262 | -1.33891 | 21220 ft | 376 kts | 211° |
| 2026-04-25 12:35 | 50.85202 | -1.36585 | 21216 ft | 376 kts | 211° |
| 2026-04-25 12:35 | 50.82911 | -1.38587 | 21220 ft | 376 kts | 211° |
| 2026-04-25 12:35 | 50.80618 | -1.40594 | 21222 ft | 376 kts | 210° |
| 2026-04-25 12:35 | 50.78329 | -1.42581 | 21218 ft | 376 kts | 210° |
| 2026-04-25 12:36 | 50.76032 | -1.44565 | 21217 ft | 376 kts | 210° |
| 2026-04-25 12:36 | 50.73735 | -1.46546 | 21214 ft | 376 kts | 210° |
| 2026-04-25 12:36 | 50.71433 | -1.48526 | 21213 ft | 376 kts | 210° |
| 2026-04-25 12:36 | 50.69133 | -1.50501 | 21212 ft | 377 kts | 210° |
| 2026-04-25 12:37 | 50.66831 | -1.52479 | 21211 ft | 377 kts | 210° |
| 2026-04-25 12:37 | 50.64532 | -1.54459 | 21210 ft | 377 kts | 210° |
| 2026-04-25 12:37 | 50.62234 | -1.56443 | 21205 ft | 377 kts | 211° |
| 2026-04-25 12:37 | 50.59930 | -1.58430 | 21205 ft | 377 kts | 211° |
| 2026-04-25 12:38 | 50.57626 | -1.60413 | 21211 ft | 377 kts | 210° |
| 2026-04-25 12:38 | 50.55328 | -1.62383 | 21212 ft | 377 kts | 210° |
| 2026-04-25 12:38 | 50.53050 | -1.64333 | 21214 ft | 377 kts | 210° |
| 2026-04-25 12:38 | 50.50745 | -1.66301 | 21214 ft | 377 kts | 210° |
| 2026-04-25 12:39 | 50.48439 | -1.68270 | 21217 ft | 377 kts | 210° |
| 2026-04-25 12:39 | 50.46135 | -1.70235 | 21217 ft | 377 kts | 210° |
| 2026-04-25 12:39 | 50.43827 | -1.72208 | 21217 ft | 377 kts | 210° |
| 2026-04-25 12:39 | 50.41523 | -1.74178 | 21217 ft | 377 kts | 210° |
| 2026-04-25 12:40 | 50.39212 | -1.76151 | 21210 ft | 377 kts | 210° |
| 2026-04-25 12:40 | 50.36907 | -1.78108 | 21209 ft | 377 kts | 210° |
| 2026-04-25 12:40 | 50.34600 | -1.80061 | 21211 ft | 377 kts | 210° |
| 2026-04-25 12:40 | 50.32321 | -1.81992 | 21211 ft | 377 kts | 210° |
| 2026-04-25 12:41 | 50.30010 | -1.83949 | 21206 ft | 377 kts | 210° |
| 2026-04-25 12:41 | 50.27699 | -1.85901 | 21206 ft | 378 kts | 210° |
| 2026-04-25 12:41 | 50.25385 | -1.87855 | 21205 ft | 378 kts | 210° |
| 2026-04-25 12:41 | 50.23072 | -1.89812 | 21205 ft | 378 kts | 210° |
| 2026-04-25 12:42 | 50.20751 | -1.91770 | 21198 ft | 379 kts | 210° |
| 2026-04-25 12:42 | 50.19216 | -1.93063 | 21200 ft | 379 kts | 210° |
| 2026-04-25 12:42 | 50.16118 | -1.95673 | 21120 ft | 376 kts | 210° |
| 2026-04-25 12:42 | 50.13835 | -1.97595 | 20861 ft | 370 kts | 210° |
| 2026-04-25 12:43 | 50.11576 | -1.99493 | 20618 ft | 368 kts | 210° |
| 2026-04-25 12:43 | 50.09326 | -2.01381 | 20371 ft | 366 kts | 210° |
| 2026-04-25 12:43 | 50.04851 | -2.05140 | 19879 ft | 364 kts | 212° |
| 2026-04-25 12:44 | 50.02898 | -2.07575 | 19634 ft | 359 kts | 229° |
| 2026-04-25 12:44 | 50.01275 | -2.10420 | 19227 ft | 355 kts | 230° |
| 2026-04-25 12:44 | 49.98059 | -2.16185 | 18202 ft | 351 kts | 231° |
| 2026-04-25 12:45 | 49.96466 | -2.19042 | 17644 ft | 348 kts | 231° |
| 2026-04-25 12:45 | 49.94890 | -2.21875 | 17101 ft | 345 kts | 231° |
| 2026-04-25 12:45 | 49.91772 | -2.27480 | 16011 ft | 341 kts | 230° |
| 2026-04-25 12:46 | 49.90234 | -2.30256 | 15483 ft | 339 kts | 230° |
| 2026-04-25 12:46 | 49.88704 | -2.33023 | 14979 ft | 336 kts | 231° |
| 2026-04-25 12:46 | 49.87187 | -2.35758 | 14508 ft | 333 kts | 230° |
| 2026-04-25 12:46 | 49.85683 | -2.38475 | 14014 ft | 331 kts | 230° |
| 2026-04-25 12:47 | 49.84195 | -2.41183 | 13444 ft | 330 kts | 230° |
| 2026-04-25 12:47 | 49.82715 | -2.43876 | 12924 ft | 327 kts | 231° |
| 2026-04-25 12:47 | 49.81244 | -2.46548 | 12416 ft | 324 kts | 231° |
| 2026-04-25 12:47 | 49.79785 | -2.49198 | 11902 ft | 322 kts | 230° |
| 2026-04-25 12:48 | 49.78339 | -2.51839 | 11375 ft | 321 kts | 231° |
| 2026-04-25 12:48 | 49.76912 | -2.54452 | 11160 ft | 311 kts | 230° |
| 2026-04-25 12:48 | 49.75540 | -2.56952 | 11026 ft | 298 kts | 230° |
| 2026-04-25 12:48 | 49.74219 | -2.59355 | 10829 ft | 289 kts | 231° |
| 2026-04-25 12:49 | 49.72945 | -2.61677 | 10407 ft | 286 kts | 230° |
| 2026-04-25 12:49 | 49.71663 | -2.64023 | 9926 ft | 285 kts | 231° |
| 2026-04-25 12:49 | 49.70383 | -2.66357 | 9524 ft | 283 kts | 230° |
| 2026-04-25 12:49 | 49.69108 | -2.68668 | 9185 ft | 281 kts | 230° |
| 2026-04-25 12:50 | 49.68270 | -2.70180 | 8894 ft | 279 kts | 230° |
| 2026-04-25 12:50 | 49.66583 | -2.73222 | 8201 ft | 279 kts | 230° |
| 2026-04-25 12:50 | 49.65323 | -2.75488 | 7732 ft | 277 kts | 231° |
| 2026-04-25 12:50 | 49.64067 | -2.77732 | 7279 ft | 275 kts | 231° |
| 2026-04-25 12:51 | 49.62816 | -2.79957 | 6833 ft | 273 kts | 231° |
| 2026-04-25 12:51 | 49.61569 | -2.82162 | 6372 ft | 272 kts | 230° |
| 2026-04-25 12:51 | 49.60330 | -2.84354 | 5906 ft | 270 kts | 230° |
| 2026-04-25 12:51 | 49.59122 | -2.86501 | 5465 ft | 267 kts | 230° |
| 2026-04-25 12:52 | 49.57910 | -2.88652 | 5125 ft | 261 kts | 230° |
| 2026-04-25 12:52 | 49.56687 | -2.90622 | 4995 ft | 248 kts | 221° |
| 2026-04-25 12:52 | 49.55184 | -2.91723 | 4823 ft | 238 kts | 191° |
| 2026-04-25 12:52 | 49.53536 | -2.91875 | 4466 ft | 236 kts | 182° |
| 2026-04-25 12:53 | 49.51898 | -2.91853 | 4118 ft | 235 kts | 180° |
| 2026-04-25 12:53 | 49.50285 | -2.91822 | 3926 ft | 227 kts | 180° |
| 2026-04-25 12:53 | 49.48747 | -2.91787 | 3793 ft | 215 kts | 180° |
| 2026-04-25 12:53 | 49.47289 | -2.91761 | 3666 ft | 204 kts | 180° |
| 2026-04-25 12:54 | 49.45932 | -2.91450 | 3519 ft | 195 kts | 155° |
| 2026-04-25 12:54 | 49.44959 | -2.90103 | 3270 ft | 192 kts | 126° |
| 2026-04-25 12:54 | 49.44257 | -2.88398 | 3131 ft | 182 kts | 121° |
| 2026-04-25 12:54 | 49.43642 | -2.86758 | 2967 ft | 172 kts | 121° |
| 2026-04-25 12:55 | 49.43063 | -2.85170 | 2722 ft | 169 kts | 118° |
| 2026-04-25 12:55 | 49.42836 | -2.84005 | 2529 ft | 169 kts | 97° |
| 2026-04-25 12:55 | 49.42876 | -2.81619 | 2165 ft | 168 kts | 88° |
| 2026-04-25 12:55 | 49.42931 | -2.79837 | 2028 ft | 166 kts | 88° |
| 2026-04-25 12:56 | 49.42983 | -2.78071 | 2009 ft | 165 kts | 88° |
| 2026-04-25 12:56 | 49.43035 | -2.76306 | 2009 ft | 166 kts | 88° |
| 2026-04-25 12:56 | 49.43087 | -2.74531 | 1912 ft | 166 kts | 89° |
| 2026-04-25 12:56 | 49.43138 | -2.72766 | 1737 ft | 165 kts | 88° |
| 2026-04-25 12:57 | 49.43188 | -2.71045 | 1540 ft | 154 kts | 88° |
| 2026-04-25 12:57 | 49.43232 | -2.69509 | 1344 ft | 136 kts | 88° |
| 2026-04-25 12:57 | 49.43272 | -2.68105 | 1173 ft | 128 kts | 88° |
| 2026-04-25 12:57 | 49.43311 | -2.66760 | 1011 ft | 125 kts | 88° |
| 2026-04-25 12:58 | 49.43350 | -2.65431 | 828 ft | 124 kts | 87° |
| 2026-04-25 12:58 | 49.43392 | -2.64119 | 682 ft | 122 kts | 86° |
| 2026-04-25 12:58 | 49.43426 | -2.62822 | 518 ft | 120 kts | 88° |
| 2026-04-25 12:58 | 49.43462 | -2.61536 | 362 ft | 120 kts | 88° |
| 2026-04-25 12:59 | 49.43493 | -2.60383 | 310 ft | 84 kts | 88° |
| 2026-04-25 12:59 | 49.43504 | -2.59930 | 321 ft | 11 kts | 88° |
| 2026-04-25 12:59 | 49.43450 | -2.59862 | 324 ft | 12 kts | 175° |
| 2026-04-25 12:59 | 49.43394 | -2.59858 | 325 ft | 6 kts | 176° |
| 2026-04-25 13:00 | 49.43383 | -2.59856 | 325 ft | 1 kts | 176° |
| 2026-04-25 13:00 | 49.43345 | -2.59805 | 327 ft | 2 kts | 94° |
| 2026-04-25 13:00 | 49.43346 | -2.59792 | 327 ft | 1 kts | 86° |
| 2026-04-25 13:01 | 49.43348 | -2.59776 | 328 ft | 2 kts | 77° |
| 2026-04-25 13:01 | 49.43354 | -2.59743 | 325 ft | 4 kts | 73° |
| 2026-04-25 13:01 | 49.43357 | -2.59689 | 329 ft | 6 kts | 104° |
| 2026-04-25 13:01 | 49.43321 | -2.59689 | 329 ft | 7 kts | 187° |
| 2026-04-25 13:02 | 49.43270 | -2.59685 | 328 ft | 5 kts | 178° |
| 2026-04-25 13:02 | 49.43260 | -2.59684 | 328 ft | 1 kts | 178° |
| 2026-04-25 13:02 | 49.43255 | -2.59684 | 328 ft | 0 kts | 178° |